sensor_id;sensor_type;location;lat;lon;timestamp;temperature;humidity
27870;DHT22;15225;50.730;4.244;2023-01-04T18:13:38;12.00;37.20
27870;DHT22;15225;50.730;4.244;2023-01-04T18:16:22;12.10;37.30
27870;DHT22;15225;50.730;4.244;2023-01-04T18:18:53;12.70;42.00
27870;DHT22;15225;50.730;4.244;2023-01-04T18:21:24;13.30;1.00
27870;DHT22;15225;50.730;4.244;2023-01-04T18:23:56;13.80;1.00
27870;DHT22;15225;50.730;4.244;2023-01-04T18:26:22;14.00;1.00
27870;DHT22;15225;50.730;4.244;2023-01-04T18:28:48;14.20;1.00
27870;DHT22;15225;50.730;4.244;2023-01-04T18:31:23;14.20;1.00
27870;DHT22;15225;50.730;4.244;2023-01-04T18:33:53;14.20;1.00
27870;DHT22;15225;50.730;4.244;2023-01-04T18:36:20;14.00;1.00
27870;DHT22;15225;50.730;4.244;2023-01-04T18:38:53;14.00;1.00
27870;DHT22;15225;50.730;4.244;2023-01-04T18:41:19;14.00;1.00
27870;DHT22;15225;50.730;4.244;2023-01-04T18:43:50;14.00;1.00
27870;DHT22;15225;50.730;4.244;2023-01-04T18:46:18;14.10;1.00
27870;DHT22;15225;50.730;4.244;2023-01-04T18:48:58;14.10;1.00
27870;DHT22;15225;50.730;4.244;2023-01-04T18:51:26;14.30;1.00
27870;DHT22;15225;50.730;4.244;2023-01-04T18:53:55;14.30;99.90
27870;DHT22;15225;50.730;4.244;2023-01-04T18:56:20;14.20;1.00
27870;DHT22;15225;50.730;4.244;2023-01-04T18:58:48;14.20;1.00
27870;DHT22;15225;50.730;4.244;2023-01-04T19:01:16;14.20;1.00
27870;DHT22;15225;50.730;4.244;2023-01-04T19:03:46;14.10;1.00
27870;DHT22;15225;50.730;4.244;2023-01-04T19:06:20;14.20;1.00
27870;DHT22;15225;50.730;4.244;2023-01-04T19:08:48;14.10;1.00
27870;DHT22;15225;50.730;4.244;2023-01-04T19:11:16;14.30;1.00
27870;DHT22;15225;50.730;4.244;2023-01-04T19:13:42;14.40;99.90
27870;DHT22;15225;50.730;4.244;2023-01-04T19:16:10;14.40;99.90
27870;DHT22;15225;50.730;4.244;2023-01-04T19:18:39;14.30;1.00
27870;DHT22;15225;50.730;4.244;2023-01-04T19:31:23;14.20;1.00
27870;DHT22;15225;50.730;4.244;2023-01-04T19:33:49;14.30;1.00
27870;DHT22;15225;50.730;4.244;2023-01-04T19:36:16;14.20;1.00
27870;DHT22;15225;50.730;4.244;2023-01-04T19:38:42;14.00;1.00
27870;DHT22;15225;50.730;4.244;2023-01-04T19:41:18;14.00;1.00
27870;DHT22;15225;50.730;4.244;2023-01-04T19:43:45;14.00;1.00
27870;DHT22;15225;50.730;4.244;2023-01-04T19:46:11;14.00;1.00
27870;DHT22;15225;50.730;4.244;2023-01-04T19:48:41;14.00;1.00
27870;DHT22;15225;50.730;4.244;2023-01-04T19:53:36;13.80;1.00
27870;DHT22;15225;50.730;4.244;2023-01-04T19:56:02;13.80;1.00
27870;DHT22;15225;50.730;4.244;2023-01-04T19:58:28;13.90;1.00
27870;DHT22;15225;50.730;4.244;2023-01-04T20:00:58;14.10;1.00
27870;DHT22;15225;50.730;4.244;2023-01-04T20:03:27;14.00;1.00
27870;DHT22;15225;50.730;4.244;2023-01-04T20:05:54;14.00;1.00
27870;DHT22;15225;50.730;4.244;2023-01-04T20:13:34;13.70;1.00
27870;DHT22;15225;50.730;4.244;2023-01-04T20:16:02;13.70;1.00
27870;DHT22;15225;50.730;4.244;2023-01-04T20:18:29;13.60;1.00
27870;DHT22;15225;50.730;4.244;2023-01-04T20:21:10;13.70;1.00
27870;DHT22;15225;50.730;4.244;2023-01-04T20:23:38;13.60;1.00
27870;DHT22;15225;50.730;4.244;2023-01-04T20:26:08;13.60;1.00
27870;DHT22;15225;50.730;4.244;2023-01-04T20:28:38;13.60;1.00
27870;DHT22;15225;50.730;4.244;2023-01-04T20:31:08;13.70;1.00
27870;DHT22;15225;50.730;4.244;2023-01-04T20:33:46;13.60;1.00
27870;DHT22;15225;50.730;4.244;2023-01-04T20:36:14;13.70;1.00
27870;DHT22;15225;50.730;4.244;2023-01-04T20:38:51;13.80;1.00
27870;DHT22;15225;50.730;4.244;2023-01-04T20:41:27;13.70;1.00
27870;DHT22;15225;50.730;4.244;2023-01-04T20:43:57;13.50;1.00
27870;DHT22;15225;50.730;4.244;2023-01-04T20:46:27;13.50;1.00
27870;DHT22;15225;50.730;4.244;2023-01-04T20:48:56;13.70;1.00
27870;DHT22;15225;50.730;4.244;2023-01-04T20:51:26;13.50;1.00
27870;DHT22;15225;50.730;4.244;2023-01-04T20:53:57;13.60;1.00
27870;DHT22;15225;50.730;4.244;2023-01-04T20:59:03;13.60;1.00
27870;DHT22;15225;50.730;4.244;2023-01-04T21:06:44;13.70;1.00
27870;DHT22;15225;50.730;4.244;2023-01-04T21:09:16;13.90;1.00
27870;DHT22;15225;50.730;4.244;2023-01-04T21:11:58;13.60;1.00
27870;DHT22;15225;50.730;4.244;2023-01-04T21:14:29;13.50;1.00
27870;DHT22;15225;50.730;4.244;2023-01-04T21:19:33;13.30;1.00
27870;DHT22;15225;50.730;4.244;2023-01-04T21:21:59;13.50;1.00
27870;DHT22;15225;50.730;4.244;2023-01-04T21:24:29;13.40;1.00
27870;DHT22;15225;50.730;4.244;2023-01-04T21:26:55;13.50;1.00
27870;DHT22;15225;50.730;4.244;2023-01-04T21:29:21;13.20;1.00
